Time;durP1;ratioP1;P1;durP2;ratioP2;P2;SDS_P1;SDS_P2;PMS_P1;PMS_P2;Temp;Humidity;BMP_temperature;BMP_pressure;BME280_temperature;BME280_humidity;BME280_pressure;Samples;Min_cycle;Max_cycle;Signal;HPM_P1;HPM_P2
2023/10/29 00:00:57;;;;;;;;;;;;;;;;;;10509786;28;20421;-75
2023/10/29 00:05:58;;;;;;;;;;;;;;;;;;10509249;28;19920;-75
2023/10/29 00:10:59;;;;;;;;;;;;;;;;;;10514137;28;20456;-74
2023/10/29 00:15:59;;;;;;;;;;;;;;;;;;10507870;28;19931;-73
2023/10/29 00:20:59;;;;;;;;;;;;;;;;;;10510723;28;20034;-76
2023/10/29 00:26:01;;;;;;;;;;;;;;;;;;10509619;28;20671;-77
2023/10/29 00:31:01;;;;;;;;;;;;;;;;;;10494936;28;19939;-75
2023/10/29 00:36:02;;;;;;;;;;;;;;;;;;10511604;28;19924;-75
2023/10/29 00:41:02;;;;;;;;;;;;;;;;;;10512861;28;19947;-74
2023/10/29 00:46:02;;;;;;;;;;;;;;;;;;10487236;28;20368;-75
2023/10/29 00:51:03;;;;;;;;;;;;;;;;;;10487622;28;19932;-75
2023/10/29 00:56:03;;;;;;;;;;;;;;;;;;10496622;28;19924;-74
2023/10/29 01:01:04;;;;;;;;;;;;;;;;;;10510851;28;19920;-75
2023/10/29 01:06:04;;;;;;;;;;;;;;;;;;10497971;28;19920;-76
2023/10/29 01:11:07;;;;;;;;;;;;;;;;;;10517165;28;19928;-76
2023/10/29 01:16:07;;;;;;;;;;;;;;;;;;10514082;28;19946;-75
2023/10/29 01:21:08;;;;;;;;;;;;;;;;;;10514964;28;19977;-75
2023/10/29 01:26:09;;;;;;;;;;;;;;;;;;10509971;28;19924;-76
2023/10/29 01:31:10;;;;;;;;;;;;;;;;;;10511071;28;20019;-77
2023/10/29 01:36:10;;;;;;;;;;;;;;;;;;10489988;28;19932;-76
2023/10/29 01:41:11;;;;;;;;;;;;;;;;;;10507786;28;20386;-79
2023/10/29 01:46:11;;;;;;;;;;;;;;;;;;10488124;28;19928;-75
2023/10/29 01:51:11;;;;;;;;;;;;;;;;;;10506565;28;20420;-75
2023/10/29 01:56:11;;;;;;;;;;;;;;;;;;10508875;28;20616;-75
2023/10/29 02:01:11;;;;;;;;;;;;;;;;;;10491860;28;20333;-76
2023/10/29 02:06:12;;;;;;;;;;;;;;;;;;10493300;28;19955;-74
2023/10/29 02:11:12;;;;;;;;;;;;;;;;;;10509753;28;19928;-76
2023/10/29 02:16:12;;;;;;;;;;;;;;;;;;10492884;28;19981;-74
2023/10/29 02:21:12;;;;;;;;;;;;;;;;;;10490753;28;19928;-75
2023/10/29 02:26:13;;;;;;;;;;;;;;;;;;10509459;28;19971;-74
2023/10/29 02:31:13;;;;;;;;;;;;;;;;;;10505943;28;21154;-75
2023/10/29 02:36:13;;;;;;;;;;;;;;;;;;10483125;28;20007;-77
2023/10/29 02:41:14;;;;;;;;;;;;;;;;;;10499002;28;19924;-76
2023/10/29 02:46:14;;;;;;;;;;;;;;;;;;10498699;28;19934;-75
2023/10/29 02:51:14;;;;;;;;;;;;;;;;;;10501396;28;19932;-77
2023/10/29 02:56:15;;;;;;;;;;;;;;;;;;10510124;28;19969;-77
2023/10/29 03:01:15;;;;;;;;;;;;;;;;;;10512761;28;20036;-75
2023/10/29 03:06:16;;;;;;;;;;;;;;;;;;10499901;28;19970;-75
2023/10/29 03:11:16;;;;;;;;;;;;;;;;;;10483135;28;20536;-75
2023/10/29 03:16:17;;;;;;;;;;;;;;;;;;10514222;28;19931;-76
2023/10/29 03:21:17;;;;;;;;;;;;;;;;;;10520909;28;20467;-75
2023/10/29 03:26:17;;;;;;;;;;;;;;;;;;10519859;28;19920;-75
2023/10/29 03:31:18;;;;;;;;;;;;;;;;;;10521355;28;19928;-77
2023/10/29 03:36:19;;;;;;;;;;;;;;;;;;10525611;28;19986;-76
2023/10/29 03:41:20;;;;;;;;;;;;;;;;;;10517148;28;19973;-76
2023/10/29 03:46:20;;;;;;;;;;;;;;;;;;10514016;28;19924;-76
2023/10/29 03:51:20;;;;;;;;;;;;;;;;;;10515663;28;19935;-76
2023/10/29 03:56:20;;;;;;;;;;;;;;;;;;10493316;28;19978;-78
2023/10/29 04:01:21;;;;;;;;;;;;;;;;;;10512206;28;19960;-77
2023/10/29 04:06:21;;;;;;;;;;;;;;;;;;10516245;28;19935;-76
2023/10/29 04:11:21;;;;;;;;;;;;;;;;;;10515303;28;20487;-79
2023/10/29 04:16:21;;;;;;;;;;;;;;;;;;10498406;28;19920;-75
2023/10/29 04:21:21;;;;;;;;;;;;;;;;;;10511444;28;19924;-79
2023/10/29 04:26:22;;;;;;;;;;;;;;;;;;10512423;28;20273;-77
2023/10/29 04:31:22;;;;;;;;;;;;;;;;;;10509599;28;19993;-76
2023/10/29 04:36:22;;;;;;;;;;;;;;;;;;10513793;28;19916;-76
2023/10/29 04:41:22;;;;;;;;;;;;;;;;;;10506955;28;20405;-76
2023/10/29 04:46:22;;;;;;;;;;;;;;;;;;10503192;28;19928;-74
2023/10/29 04:51:23;;;;;;;;;;;;;;;;;;10490748;28;19942;-75
2023/10/29 04:56:23;;;;;;;;;;;;;;;;;;10492449;28;19924;-75
2023/10/29 05:01:24;;;;;;;;;;;;;;;;;;10509633;28;19924;-75
2023/10/29 05:06:24;;;;;;;;;;;;;;;;;;10493310;28;19927;-77
2023/10/29 05:11:25;;;;;;;;;;;;;;;;;;10510322;28;20374;-74
2023/10/29 05:16:25;;;;;;;;;;;;;;;;;;10511376;28;19973;-75
2023/10/29 05:21:25;;;;;;;;;;;;;;;;;;10509165;28;19927;-77
2023/10/29 05:26:26;;;;;;;;;;;;;;;;;;10509844;28;19920;-75
2023/10/29 05:31:26;;;;;;;;;;;;;;;;;;10492837;28;20018;-76
2023/10/29 05:36:28;;;;;;;;;;;;;;;;;;10505648;28;20423;-76
2023/10/29 05:41:29;;;;;;;;;;;;;;;;;;10506317;28;19920;-76
2023/10/29 05:46:29;;;;;;;;;;;;;;;;;;10499425;28;20358;-76
2023/10/29 05:51:29;;;;;;;;;;;;;;;;;;10504573;28;19947;-75
2023/10/29 05:56:30;;;;;;;;;;;;;;;;;;10504437;28;19920;-75
2023/10/29 06:01:30;;;;;;;;;;;;;;;;;;10503703;28;20436;-76
2023/10/29 06:06:30;;;;;;;;;;;;;;;;;;10509707;28;19946;-74
2023/10/29 06:11:30;;;;;;;;;;;;;;;;;;10508378;28;19989;-74
2023/10/29 06:16:30;;;;;;;;;;;;;;;;;;10508758;28;19929;-77
2023/10/29 06:21:31;;;;;;;;;;;;;;;;;;10507682;28;19920;-75
2023/10/29 06:26:31;;;;;;;;;;;;;;;;;;10518343;28;19924;-76
2023/10/29 06:31:33;;;;;;;;;;;;;;;;;;10517594;28;20325;-75
2023/10/29 06:36:33;;;;;;;;;;;;;;;;;;10519559;28;19924;-76
2023/10/29 06:41:33;;;;;;;;;;;;;;;;;;10515936;28;19928;-72
2023/10/29 06:46:34;;;;;;;;;;;;;;;;;;10515953;28;19928;-75
2023/10/29 06:51:34;;;;;;;;;;;;;;;;;;10514624;28;19935;-73
2023/10/29 06:56:34;;;;;;;;;;;;;;;;;;10518266;28;20008;-75
2023/10/29 07:01:35;;;;;;;;;;;;;;;;;;10519439;28;19926;-74
2023/10/29 07:06:35;;;;;;;;;;;;;;;;;;10524524;28;20275;-76
2023/10/29 07:11:36;;;;;;;;;;;;;;;;;;10511308;28;19972;-74
2023/10/29 07:16:37;;;;;;;;;;;;;;;;;;10512030;28;19978;-76
2023/10/29 07:21:38;;;;;;;;;;;;;;;;;;10509433;28;19970;-76
2023/10/29 07:26:38;;;;;;;;;;;;;;;;;;10503764;28;19951;-78
2023/10/29 07:31:38;;;;;;;;;;;;;;;;;;10471725;28;20257;-77
2023/10/29 07:36:38;;;;;;;;;;;;;;;;;;10502491;28;20024;-74
2023/10/29 07:41:39;;;;;;;;;;;;;;;;;;10498805;28;19921;-78
2023/10/29 07:46:39;;;;;;;;;;;;;;;;;;10499951;28;19968;-75
2023/10/29 07:51:39;;;;;;;;;;;;;;;;;;10509900;28;20338;-76
2023/10/29 07:56:41;;;;;;;;;;;;;;;;;;10513867;28;19920;-78
2023/10/29 08:01:41;;;;;;;;;;;;;;;;;;10483254;28;20382;-75
2023/10/29 08:06:41;;;;;;;;;;;;;;;;;;10516813;28;19985;-75
2023/10/29 08:11:41;;;;;;;;;;;;;;;;;;10513601;28;20055;-76
2023/10/29 08:16:41;;;;;;;;;;;;;;;;;;10495101;28;19932;-74
2023/10/29 08:21:42;;;;;;;;;;;;;;;;;;10510070;28;19943;-77
2023/10/29 08:26:42;;;;;;;;;;;;;;;;;;10514240;28;19923;-75
2023/10/29 08:31:42;;;;;;;;;;;;;;;;;;10513994;28;19928;-74
2023/10/29 08:36:43;;;;;;;;;;;;;;;;;;10512188;28;20439;-75
2023/10/29 08:41:43;;;;;;;;;;;;;;;;;;10512927;28;19968;-73
2023/10/29 08:46:43;;;;;;;;;;;;;;;;;;10513728;28;20027;-72
2023/10/29 08:51:43;;;;;;;;;;;;;;;;;;10505514;28;19938;-76
2023/10/29 08:56:44;;;;;;;;;;;;;;;;;;10505595;28;19931;-76
2023/10/29 09:01:44;;;;;;;;;;;;;;;;;;10502038;28;19917;-77
2023/10/29 09:06:44;;;;;;;;;;;;;;;;;;10509003;28;19927;-78
2023/10/29 09:11:46;;;;;;;;;;;;;;;;;;10504781;28;20011;-76
2023/10/29 09:16:49;;;;;;;;;;;;;;;;;;10500816;28;19920;-76
2023/10/29 09:21:51;;;;;;;;;;;;;;;;;;10505907;28;20039;-77
2023/10/29 09:26:51;;;;;;;;;;;;;;;;;;10455167;28;19929;-77
2023/10/29 09:31:52;;;;;;;;;;;;;;;;;;10431579;28;20369;-76
2023/10/29 09:36:52;;;;;;;;;;;;;;;;;;10446324;28;19916;-75
2023/10/29 09:41:55;;;;;;;;;;;;;;;;;;10459626;28;19917;-74
2023/10/29 09:47:00;;;;;;;;;;;;;;;;;;10450787;28;20011;-77
2023/10/29 09:52:00;;;;;;;;;;;;;;;;;;10450820;28;19932;-74
2023/10/29 09:57:00;;;;;;;;;;;;;;;;;;10451733;28;20004;-77
2023/10/29 10:02:01;;;;;;;;;;;;;;;;;;10434536;28;20204;-77
2023/10/29 10:07:01;;;;;;;;;;;;;;;;;;10446278;28;19999;-80
2023/10/29 10:12:02;;;;;;;;;;;;;;;;;;10461012;28;20114;-74
2023/10/29 10:17:02;;;;;;;;;;;;;;;;;;10457830;28;19931;-75
2023/10/29 10:22:04;;;;;;;;;;;;;;;;;;10451041;28;19920;-75
2023/10/29 10:27:04;;;;;;;;;;;;;;;;;;10459069;28;19985;-76
2023/10/29 10:32:04;;;;;;;;;;;;;;;;;;10452661;28;20342;-76
2023/10/29 10:37:05;;;;;;;;;;;;;;;;;;10455769;28;19920;-79
2023/10/29 10:42:05;;;;;;;;;;;;;;;;;;10456920;28;19994;-77
2023/10/29 10:47:05;;;;;;;;;;;;;;;;;;10424847;28;19921;-75
2023/10/29 10:52:06;;;;;;;;;;;;;;;;;;10470143;28;19962;-79
2023/10/29 10:57:06;;;;;;;;;;;;;;;;;;10449813;28;20029;-78
2023/10/29 11:02:07;;;;;;;;;;;;;;;;;;10467955;28;19925;-76
2023/10/29 11:07:07;;;;;;;;;;;;;;;;;;10463174;28;19928;-79
2023/10/29 11:12:07;;;;;;;;;;;;;;;;;;10466821;28;19940;-76
2023/10/29 11:17:08;;;;;;;;;;;;;;;;;;10470872;28;20854;-76
2023/10/29 11:22:08;;;;;;;;;;;;;;;;;;10470113;28;19982;-77
2023/10/29 11:27:08;;;;;;;;;;;;;;;;;;10492365;28;19934;-75
2023/10/29 11:32:08;;;;;;;;;;;;;;;;;;10501695;28;19928;-75
2023/10/29 11:37:09;;;;;;;;;;;;;;;;;;10481120;28;20006;-77
2023/10/29 11:42:09;;;;;;;;;;;;;;;;;;10460118;28;19932;-77
2023/10/29 11:47:09;;;;;;;;;;;;;;;;;;10506373;28;19924;-77
2023/10/29 11:52:09;;;;;;;;;;;;;;;;;;10495412;28;20046;-76
2023/10/29 11:57:10;;;;;;;;;;;;;;;;;;10491271;28;19946;-79
2023/10/29 12:02:10;;;;;;;;;;;;;;;;;;10491192;28;19920;-78
2023/10/29 12:07:10;;;;;;;;;;;;;;;;;;10458019;28;20676;-74
2023/10/29 12:12:12;;;;;;;;;;;;;;;;;;10476279;28;19925;-76
2023/10/29 12:17:12;;;;;;;;;;;;;;;;;;10489448;28;19912;-77
2023/10/29 12:22:12;;;;;;;;;;;;;;;;;;10494413;28;19920;-75
2023/10/29 12:27:13;;;;;;;;;;;;;;;;;;10490039;28;19920;-77
2023/10/29 12:32:14;;;;;;;;;;;;;;;;;;10504619;28;19939;-74
2023/10/29 12:37:14;;;;;;;;;;;;;;;;;;10505985;28;20030;-76
2023/10/29 12:42:15;;;;;;;;;;;;;;;;;;10489372;28;19924;-77
2023/10/29 12:47:16;;;;;;;;;;;;;;;;;;10505391;28;19919;-78
2023/10/29 12:52:16;;;;;;;;;;;;;;;;;;10517644;28;20520;-78
2023/10/29 12:57:17;;;;;;;;;;;;;;;;;;10510238;28;19959;-75
2023/10/29 13:02:18;;;;;;;;;;;;;;;;;;10503969;28;20358;-76
2023/10/29 13:07:19;;;;;;;;;;;;;;;;;;10505418;28;19980;-75
2023/10/29 13:12:19;;;;;;;;;;;;;;;;;;10505552;28;20414;-79
2023/10/29 13:17:19;;;;;;;;;;;;;;;;;;10501374;28;19926;-74
2023/10/29 13:22:21;;;;;;;;;;;;;;;;;;10501129;28;20005;-76
2023/10/29 13:27:22;;;;;;;;;;;;;;;;;;10454245;28;20269;-76
2023/10/29 13:32:22;;;;;;;;;;;;;;;;;;10429290;28;20007;-76
2023/10/29 13:37:22;;;;;;;;;;;;;;;;;;10440379;28;19929;-76
2023/10/29 13:42:23;;;;;;;;;;;;;;;;;;10441201;28;19932;-75
2023/10/29 13:47:23;;;;;;;;;;;;;;;;;;10443252;28;20364;-74
2023/10/29 13:52:23;;;;;;;;;;;;;;;;;;10459655;28;19986;-76
2023/10/29 13:57:24;;;;;;;;;;;;;;;;;;10447660;28;19921;-74
2023/10/29 14:02:24;;;;;;;;;;;;;;;;;;10441438;28;20212;-74
2023/10/29 14:07:26;;;;;;;;;;;;;;;;;;10443878;28;19921;-78
2023/10/29 14:12:26;;;;;;;;;;;;;;;;;;10438059;28;19938;-74
2023/10/29 14:17:27;;;;;;;;;;;;;;;;;;10442485;28;20262;-77
2023/10/29 14:22:27;;;;;;;;;;;;;;;;;;10456940;28;19943;-75
2023/10/29 14:27:28;;;;;;;;;;;;;;;;;;10454603;28;19958;-76
2023/10/29 14:32:28;;;;;;;;;;;;;;;;;;10458440;28;20326;-76
2023/10/29 14:37:29;;;;;;;;;;;;;;;;;;10459290;28;19971;-76
2023/10/29 14:42:30;;;;;;;;;;;;;;;;;;10455647;28;19955;-76
2023/10/29 14:47:30;;;;;;;;;;;;;;;;;;10470577;28;19927;-79
2023/10/29 14:52:30;;;;;;;;;;;;;;;;;;10470357;28;19994;-79
2023/10/29 14:57:30;;;;;;;;;;;;;;;;;;10468259;28;20305;-79
2023/10/29 15:02:30;;;;;;;;;;;;;;;;;;10460692;28;19963;-78
2023/10/29 15:07:31;;;;;;;;;;;;;;;;;;10467293;28;19921;-77
2023/10/29 15:12:31;;;;;;;;;;;;;;;;;;10465402;28;19928;-78
2023/10/29 15:17:31;;;;;;;;;;;;;;;;;;10468409;28;19943;-78
2023/10/29 15:22:32;;;;;;;;;;;;;;;;;;10463550;28;19924;-78
2023/10/29 15:27:33;;;;;;;;;;;;;;;;;;10436534;28;19925;-80
2023/10/29 15:32:33;;;;;;;;;;;;;;;;;;10459404;28;19928;-79
2023/10/29 15:37:33;;;;;;;;;;;;;;;;;;10451189;28;20675;-78
2023/10/29 15:42:34;;;;;;;;;;;;;;;;;;10457273;28;19994;-80
2023/10/29 15:47:34;;;;;;;;;;;;;;;;;;10459309;28;20014;-77
2023/10/29 15:52:34;;;;;;;;;;;;;;;;;;10459140;28;19929;-80
2023/10/29 15:57:34;;;;;;;;;;;;;;;;;;10462710;28;19921;-76
2023/10/29 16:02:35;;;;;;;;;;;;;;;;;;10440249;28;19920;-76
2023/10/29 16:07:35;;;;;;;;;;;;;;;;;;10464765;28;19921;-81
2023/10/29 16:12:35;;;;;;;;;;;;;;;;;;10453382;28;19960;-81
2023/10/29 16:17:35;;;;;;;;;;;;;;;;;;10444573;28;20051;-79
2023/10/29 16:22:36;;;;;;;;;;;;;;;;;;10473445;28;19920;-81
2023/10/29 16:27:38;;;;;;;;;;;;;;;;;;10472473;28;20023;-78
2023/10/29 16:32:38;;;;;;;;;;;;;;;;;;10451644;28;20341;-82
2023/10/29 16:37:39;;;;;;;;;;;;;;;;;;10458826;28;19920;-82
2023/10/29 16:42:39;;;;;;;;;;;;;;;;;;10463203;28;19921;-79
2023/10/29 16:47:39;;;;;;;;;;;;;;;;;;10456164;28;19975;-82
2023/10/29 16:52:40;;;;;;;;;;;;;;;;;;10466632;28;20019;-79
2023/10/29 16:57:40;;;;;;;;;;;;;;;;;;10444448;28;19994;-80
2023/10/29 17:02:40;;;;;;;;;;;;;;;;;;10439783;28;19921;-77
2023/10/29 17:07:41;;;;;;;;;;;;;;;;;;10473430;28;20246;-80
2023/10/29 17:12:41;;;;;;;;;;;;;;;;;;10465883;28;20430;-81
2023/10/29 17:17:41;;;;;;;;;;;;;;;;;;10444968;28;19947;-80
2023/10/29 17:22:42;;;;;;;;;;;;;;;;;;10452215;28;19920;-78
2023/10/29 17:27:42;;;;;;;;;;;;;;;;;;10452012;28;20002;-79
2023/10/29 17:32:42;;;;;;;;;;;;;;;;;;10453056;28;19932;-78
2023/10/29 17:37:43;;;;;;;;;;;;;;;;;;10455515;28;19932;-76
2023/10/29 17:42:43;;;;;;;;;;;;;;;;;;10441737;28;19928;-76
2023/10/29 17:47:43;;;;;;;;;;;;;;;;;;10429129;28;20316;-76
2023/10/29 17:52:43;;;;;;;;;;;;;;;;;;10433948;28;19954;-75
2023/10/29 17:57:44;;;;;;;;;;;;;;;;;;10434976;28;19929;-75
2023/10/29 18:02:44;;;;;;;;;;;;;;;;;;10450486;28;19970;-77
2023/10/29 18:07:44;;;;;;;;;;;;;;;;;;10454380;28;19967;-74
2023/10/29 18:12:45;;;;;;;;;;;;;;;;;;10414667;28;19959;-74
2023/10/29 18:17:45;;;;;;;;;;;;;;;;;;10461635;28;19920;-78
2023/10/29 18:22:45;;;;;;;;;;;;;;;;;;10451782;28;19935;-77
2023/10/29 18:27:45;;;;;;;;;;;;;;;;;;10461909;28;19925;-77
2023/10/29 18:32:46;;;;;;;;;;;;;;;;;;10464573;28;20671;-75
2023/10/29 18:37:49;;;;;;;;;;;;;;;;;;10467848;28;19920;-77
2023/10/29 18:42:49;;;;;;;;;;;;;;;;;;10474186;28;19920;-77
2023/10/29 18:47:50;;;;;;;;;;;;;;;;;;10481973;28;19928;-77
2023/10/29 18:52:50;;;;;;;;;;;;;;;;;;10484096;28;19934;-76
2023/10/29 18:57:50;;;;;;;;;;;;;;;;;;10470856;28;20745;-76
2023/10/29 19:02:50;;;;;;;;;;;;;;;;;;10469658;28;19960;-75
2023/10/29 19:07:51;;;;;;;;;;;;;;;;;;10468190;28;20016;-73
2023/10/29 19:12:51;;;;;;;;;;;;;;;;;;10468310;28;19937;-79
2023/10/29 19:17:51;;;;;;;;;;;;;;;;;;10465861;28;19928;-81
2023/10/29 19:22:51;;;;;;;;;;;;;;;;;;10463710;28;19950;-77
2023/10/29 19:27:52;;;;;;;;;;;;;;;;;;10484484;28;20607;-74
2023/10/29 19:32:54;;;;;;;;;;;;;;;;;;10495184;28;19932;-73
2023/10/29 19:37:54;;;;;;;;;;;;;;;;;;10494662;28;19926;-79
2023/10/29 19:42:55;;;;;;;;;;;;;;;;;;10484217;28;19960;-78
2023/10/29 19:47:58;;;;;;;;;;;;;;;;;;10503956;28;20391;-81
2023/10/29 19:52:59;;;;;;;;;;;;;;;;;;10496611;28;19932;-75
2023/10/29 19:57:59;;;;;;;;;;;;;;;;;;10477889;28;19960;-73
2023/10/29 20:03:01;;;;;;;;;;;;;;;;;;10450915;28;19930;-76
2023/10/29 20:08:02;;;;;;;;;;;;;;;;;;10494908;28;19998;-76
2023/10/29 20:13:02;;;;;;;;;;;;;;;;;;10454242;28;19985;-76
2023/10/29 20:18:03;;;;;;;;;;;;;;;;;;10494421;28;20241;-74
2023/10/29 20:23:03;;;;;;;;;;;;;;;;;;10486484;28;19927;-77
2023/10/29 20:28:04;;;;;;;;;;;;;;;;;;10483775;28;19951;-73
2023/10/29 20:33:04;;;;;;;;;;;;;;;;;;10496762;28;20352;-73
2023/10/29 20:38:04;;;;;;;;;;;;;;;;;;10476885;28;19919;-75
2023/10/29 20:43:04;;;;;;;;;;;;;;;;;;10486054;28;19963;-74
2023/10/29 20:48:05;;;;;;;;;;;;;;;;;;10493349;28;19959;-75
2023/10/29 20:53:05;;;;;;;;;;;;;;;;;;10491316;28;19935;-72
2023/10/29 20:58:05;;;;;;;;;;;;;;;;;;10494612;28;20041;-73
2023/10/29 21:03:06;;;;;;;;;;;;;;;;;;10508758;28;19965;-75
2023/10/29 21:08:07;;;;;;;;;;;;;;;;;;10498125;28;19963;-75
2023/10/29 21:13:07;;;;;;;;;;;;;;;;;;10501610;28;19955;-75
2023/10/29 21:18:07;;;;;;;;;;;;;;;;;;10471167;28;20532;-72
2023/10/29 21:23:08;;;;;;;;;;;;;;;;;;10483013;28;20019;-74
2023/10/29 21:28:08;;;;;;;;;;;;;;;;;;10500497;28;19928;-72
2023/10/29 21:33:08;;;;;;;;;;;;;;;;;;10498642;28;20414;-73
2023/10/29 21:38:10;;;;;;;;;;;;;;;;;;10494239;28;19927;-73
2023/10/29 21:43:10;;;;;;;;;;;;;;;;;;10476856;28;20410;-75
2023/10/29 21:48:10;;;;;;;;;;;;;;;;;;10485071;28;19924;-75
2023/10/29 21:53:11;;;;;;;;;;;;;;;;;;10499857;28;19932;-74
2023/10/29 21:58:11;;;;;;;;;;;;;;;;;;10508559;28;19978;-74
2023/10/29 22:03:11;;;;;;;;;;;;;;;;;;10484050;28;20498;-75
2023/10/29 22:08:12;;;;;;;;;;;;;;;;;;10493627;28;20340;-74
2023/10/29 22:13:12;;;;;;;;;;;;;;;;;;10489988;28;19954;-73
2023/10/29 22:18:12;;;;;;;;;;;;;;;;;;10461474;28;19921;-74
2023/10/29 22:23:12;;;;;;;;;;;;;;;;;;10488880;28;19938;-74
2023/10/29 22:28:13;;;;;;;;;;;;;;;;;;10452428;28;20381;-73
2023/10/29 22:33:13;;;;;;;;;;;;;;;;;;10448991;28;19940;-74
2023/10/29 22:38:14;;;;;;;;;;;;;;;;;;10459333;28;19925;-74
2023/10/29 22:43:14;;;;;;;;;;;;;;;;;;10449281;28;19931;-72
2023/10/29 22:48:14;;;;;;;;;;;;;;;;;;10459526;28;19966;-72
2023/10/29 22:53:14;;;;;;;;;;;;;;;;;;10468798;28;20988;-75
2023/10/29 22:58:15;;;;;;;;;;;;;;;;;;10459350;28;19925;-73
2023/10/29 23:03:15;;;;;;;;;;;;;;;;;;10467877;28;20522;-75
2023/10/29 23:08:15;;;;;;;;;;;;;;;;;;10464520;28;20023;-72
2023/10/29 23:13:16;;;;;;;;;;;;;;;;;;10446807;28;20063;-75
2023/10/29 23:18:16;;;;;;;;;;;;;;;;;;10453898;28;20326;-75
2023/10/29 23:23:17;;;;;;;;;;;;;;;;;;10429796;28;19921;-75
2023/10/29 23:28:17;;;;;;;;;;;;;;;;;;10462550;28;19944;-74
2023/10/29 23:33:17;;;;;;;;;;;;;;;;;;10461352;28;20324;-74
2023/10/29 23:38:17;;;;;;;;;;;;;;;;;;10441760;28;20483;-74
2023/10/29 23:43:18;;;;;;;;;;;;;;;;;;10462840;28;19947;-75
2023/10/29 23:48:18;;;;;;;;;;;;;;;;;;10451984;28;19928;-74
2023/10/29 23:53:18;;;;;;;;;;;;;;;;;;10454006;28;19929;-76
2023/10/29 23:58:19;;;;;;;;;;;;;;;;;;10472555;28;19967;-75
